createdAt,value
2022-10-25T00:02:16.050Z,10.90
2022-10-25T00:04:43.130Z,10.80
2022-10-25T00:07:09.890Z,10.70
2022-10-25T00:09:36.852Z,10.70
2022-10-25T00:12:04.458Z,10.70
2022-10-25T00:14:31.455Z,10.80
2022-10-25T00:16:58.332Z,10.80
2022-10-25T00:19:25.107Z,10.60
2022-10-25T00:21:51.923Z,10.70
2022-10-25T00:24:18.795Z,10.70
2022-10-25T00:26:45.673Z,10.80
2022-10-25T00:29:12.509Z,10.90
2022-10-25T00:31:39.411Z,10.90
2022-10-25T00:34:06.196Z,10.90
2022-10-25T00:36:33.183Z,10.90
2022-10-25T00:39:00.064Z,10.90
2022-10-25T00:41:28.598Z,11.00
2022-10-25T00:43:56.698Z,11.10
2022-10-25T00:46:30.907Z,11.10
2022-10-25T00:49:15.431Z,11.00
2022-10-25T00:51:51.074Z,11.00
2022-10-25T00:56:50.571Z,11.30
2022-10-25T00:59:19.961Z,11.20
2022-10-25T01:01:47.557Z,11.20
2022-10-25T01:04:16.033Z,11.10
2022-10-25T01:06:45.738Z,11.10
2022-10-25T01:09:14.599Z,11.10
2022-10-25T01:11:41.375Z,11.20
2022-10-25T01:14:10.567Z,11.20
2022-10-25T01:16:46.271Z,11.10
2022-10-25T01:19:16.173Z,11.10
2022-10-25T01:21:42.905Z,11.00
2022-10-25T01:24:14.759Z,10.90
2022-10-25T01:26:41.579Z,10.90
2022-10-25T01:29:28.775Z,10.90
2022-10-25T01:32:06.829Z,10.90
2022-10-25T01:34:38.387Z,10.80
2022-10-25T01:37:05.249Z,10.80
2022-10-25T01:39:45.383Z,10.70
2022-10-25T01:42:32.001Z,10.70
2022-10-25T01:45:01.863Z,10.70
2022-10-25T01:47:47.425Z,10.80
2022-10-25T01:50:16.454Z,10.90
2022-10-25T01:52:43.345Z,10.90
2022-10-25T01:55:12.379Z,10.90
2022-10-25T01:57:45.274Z,10.90
2022-10-25T02:00:14.852Z,11.00
2022-10-25T02:03:00.305Z,11.00
2022-10-25T02:05:33.552Z,11.00
2022-10-25T02:08:00.362Z,11.00
2022-10-25T02:10:27.259Z,10.90
2022-10-25T02:13:09.367Z,10.90
2022-10-25T02:15:56.322Z,10.80
2022-10-25T02:18:25.969Z,10.90
2022-10-25T02:20:54.399Z,11.00
2022-10-25T02:23:22.294Z,10.90
2022-10-25T02:25:49.723Z,10.80
2022-10-25T02:28:19.374Z,10.70
2022-10-25T02:30:46.232Z,10.70
2022-10-25T02:33:13.106Z,10.70
2022-10-25T02:35:39.932Z,10.60
2022-10-25T02:38:06.767Z,10.60
2022-10-25T02:40:34.594Z,10.60
2022-10-25T02:43:01.579Z,10.50
2022-10-25T02:45:28.563Z,10.40
2022-10-25T02:47:55.628Z,10.30
2022-10-25T02:50:22.541Z,10.30
2022-10-25T02:52:49.547Z,10.30
2022-10-25T02:55:16.564Z,10.30
2022-10-25T02:57:43.406Z,10.10
2022-10-25T03:00:10.627Z,10.10
2022-10-25T03:02:37.548Z,10.10
2022-10-25T03:05:04.463Z,10.10
2022-10-25T03:07:31.270Z,10.00
2022-10-25T03:09:58.093Z,9.90
2022-10-25T03:12:24.950Z,9.90
2022-10-25T03:14:51.831Z,9.90
2022-10-25T03:17:18.684Z,10.00
2022-10-25T03:19:45.502Z,10.10
2022-10-25T03:22:12.269Z,10.20
2022-10-25T03:24:39.098Z,10.00
2022-10-25T03:27:05.998Z,9.90
2022-10-25T03:29:32.837Z,9.90
2022-10-25T03:31:59.725Z,9.90
2022-10-25T03:34:26.549Z,9.90
2022-10-25T03:36:53.482Z,9.80
2022-10-25T03:39:20.378Z,9.80
2022-10-25T03:41:47.235Z,9.90
2022-10-25T03:44:14.150Z,10.00
2022-10-25T03:46:41.306Z,10.10
2022-10-25T03:49:08.103Z,10.10
2022-10-25T03:51:34.868Z,10.20
2022-10-25T03:54:01.668Z,10.20
2022-10-25T03:56:28.523Z,10.20
2022-10-25T03:58:55.399Z,10.30
2022-10-25T04:01:22.327Z,10.30
2022-10-25T04:03:49.291Z,10.20
2022-10-25T04:06:16.066Z,10.30
2022-10-25T04:08:42.881Z,10.40
2022-10-25T04:11:09.746Z,10.40
2022-10-25T04:13:36.655Z,10.50
2022-10-25T04:16:07.380Z,10.60
2022-10-25T04:18:34.291Z,10.70
2022-10-25T04:21:01.080Z,10.90
2022-10-25T04:23:27.916Z,10.90
2022-10-25T04:25:56.874Z,11.00
2022-10-25T04:28:24.274Z,11.00
2022-10-25T04:30:51.052Z,11.10
2022-10-25T04:33:17.915Z,11.10
2022-10-25T04:35:44.853Z,11.10
2022-10-25T04:38:11.731Z,11.10
2022-10-25T04:40:38.598Z,11.20
2022-10-25T04:43:05.375Z,11.30
2022-10-25T04:45:32.242Z,11.30
2022-10-25T04:48:00.001Z,11.30
2022-10-25T04:50:26.919Z,11.20
2022-10-25T04:52:53.832Z,11.30
2022-10-25T04:55:20.626Z,11.20
2022-10-25T04:57:47.461Z,11.00
2022-10-25T05:00:14.350Z,11.00
2022-10-25T05:02:41.236Z,11.00
2022-10-25T05:05:08.378Z,10.80
2022-10-25T05:07:35.352Z,10.70
2022-10-25T05:10:02.144Z,10.60
2022-10-25T05:12:28.978Z,10.50
2022-10-25T05:14:55.740Z,10.60
2022-10-25T05:17:22.812Z,10.60
2022-10-25T05:19:49.671Z,10.70
2022-10-25T05:22:16.518Z,10.90
2022-10-25T05:24:43.409Z,11.00
2022-10-25T05:27:10.202Z,11.20
2022-10-25T05:29:37.463Z,11.20
2022-10-25T05:32:04.347Z,11.30
2022-10-25T05:34:31.233Z,11.30
2022-10-25T05:36:58.200Z,11.20
2022-10-25T05:39:25.050Z,11.10
2022-10-25T05:41:51.830Z,11.20
2022-10-25T05:44:18.660Z,11.20
2022-10-25T05:46:45.635Z,11.10
2022-10-25T05:49:12.721Z,11.20
2022-10-25T05:51:39.739Z,11.10
2022-10-25T05:54:10.995Z,11.00
2022-10-25T05:56:38.408Z,10.90
2022-10-25T05:59:09.396Z,10.90
2022-10-25T06:01:40.707Z,11.00
2022-10-25T06:04:08.303Z,11.20
2022-10-25T06:06:36.110Z,11.20
2022-10-25T06:09:03.552Z,11.20
2022-10-25T06:11:30.696Z,11.20
2022-10-25T06:13:57.699Z,11.20
2022-10-25T06:16:24.602Z,11.20
2022-10-25T06:18:52.514Z,11.10
2022-10-25T06:21:23.707Z,11.50
2022-10-25T06:23:50.860Z,11.30
2022-10-25T06:26:21.839Z,11.30
2022-10-25T06:28:48.862Z,11.40
2022-10-25T06:31:17.233Z,11.50
2022-10-25T06:33:44.471Z,11.60
2022-10-25T06:36:18.853Z,11.60
2022-10-25T06:38:46.217Z,11.60
2022-10-25T06:41:14.530Z,11.60
2022-10-25T06:43:41.584Z,11.80
2022-10-25T06:46:09.293Z,11.90
2022-10-25T06:48:36.457Z,12.00
2022-10-25T06:51:09.175Z,12.00
2022-10-25T06:53:36.113Z,12.00
2022-10-25T06:56:05.014Z,12.00
2022-10-25T06:58:33.608Z,12.00
2022-10-25T07:01:01.933Z,12.20
2022-10-25T07:03:31.887Z,12.30
2022-10-25T07:05:59.336Z,12.50
2022-10-25T07:08:26.338Z,12.80
2022-10-25T07:10:54.045Z,12.70
2022-10-25T07:13:20.961Z,12.50
2022-10-25T07:15:47.833Z,12.40
2022-10-25T07:18:15.019Z,12.30
2022-10-25T07:20:42.168Z,12.40
2022-10-25T07:23:08.999Z,12.60
2022-10-25T07:25:35.847Z,12.80
2022-10-25T07:28:02.730Z,13.10
2022-10-25T07:30:30.032Z,13.40
2022-10-25T07:32:56.859Z,13.60
2022-10-25T07:35:23.703Z,13.60
2022-10-25T07:37:50.509Z,13.80
2022-10-25T07:40:17.462Z,13.90
2022-10-25T07:42:44.343Z,14.30
2022-10-25T07:45:11.368Z,14.60
2022-10-25T07:47:38.224Z,15.00
2022-10-25T07:50:05.222Z,15.20
2022-10-25T07:52:32.004Z,15.00
2022-10-25T07:54:58.830Z,14.90
2022-10-25T07:57:25.697Z,14.50
2022-10-25T07:59:52.711Z,14.80
2022-10-25T08:02:22.998Z,14.90
2022-10-25T08:04:54.271Z,15.20
2022-10-25T08:07:21.256Z,16.30
2022-10-25T08:09:48.166Z,17.50
2022-10-25T08:12:20.287Z,19.20
2022-10-25T08:14:49.842Z,19.40
2022-10-25T08:17:18.047Z,19.50
2022-10-25T08:19:50.159Z,19.60
2022-10-25T08:22:18.164Z,19.30
2022-10-25T08:24:44.978Z,19.10
2022-10-25T08:27:11.819Z,18.80
2022-10-25T08:29:39.172Z,18.50
2022-10-25T08:32:06.006Z,18.20
2022-10-25T08:34:33.346Z,18.00
2022-10-25T08:37:00.277Z,18.20
2022-10-25T08:39:27.090Z,18.60
2022-10-25T08:41:58.158Z,19.70
2022-10-25T08:44:25.152Z,21.20
2022-10-25T08:47:10.438Z,21.10
2022-10-25T08:50:02.025Z,20.90
2022-10-25T08:52:35.039Z,20.60
2022-10-25T08:55:05.821Z,20.10
2022-10-25T08:57:34.217Z,19.70
2022-10-25T09:00:10.556Z,20.80
2022-10-25T09:02:37.570Z,21.70
2022-10-25T09:05:09.596Z,21.60
2022-10-25T09:07:54.448Z,22.10
2022-10-25T09:10:33.235Z,21.60
2022-10-25T09:13:08.467Z,20.60
2022-10-25T09:15:40.476Z,19.80
2022-10-25T09:18:16.918Z,20.00
2022-10-25T09:20:49.735Z,20.00
2022-10-25T09:23:16.600Z,19.20
2022-10-25T09:25:51.569Z,18.50
2022-10-25T09:28:25.178Z,18.20
2022-10-25T09:30:53.988Z,18.80
2022-10-25T09:33:23.513Z,19.10
2022-10-25T09:35:53.579Z,20.40
2022-10-25T09:38:33.433Z,21.60
2022-10-25T09:41:02.520Z,21.40
2022-10-25T09:43:35.539Z,21.80
2022-10-25T09:46:05.091Z,23.20
2022-10-25T09:48:38.558Z,23.70
2022-10-25T09:51:13.142Z,23.90
2022-10-25T09:53:41.379Z,24.10
2022-10-25T09:56:08.209Z,24.60
2022-10-25T09:58:39.794Z,24.50
2022-10-25T10:01:15.821Z,23.30
2022-10-25T10:03:44.631Z,23.20
2022-10-25T10:06:17.978Z,22.70
2022-10-25T10:08:49.438Z,22.70
2022-10-25T10:11:17.503Z,23.40
2022-10-25T10:13:50.423Z,23.40
2022-10-25T10:16:17.381Z,22.40
2022-10-25T10:18:44.595Z,21.30
2022-10-25T10:21:11.485Z,21.50
2022-10-25T10:23:38.362Z,21.70
2022-10-25T10:26:14.284Z,21.80
2022-10-25T10:28:49.219Z,22.30
2022-10-25T10:31:16.749Z,23.10
2022-10-25T10:33:50.487Z,24.80
2022-10-25T10:36:22.295Z,24.90
2022-10-25T10:38:49.366Z,25.00
2022-10-25T10:41:19.244Z,24.10
2022-10-25T10:43:46.153Z,23.70
2022-10-25T10:46:17.526Z,23.40
2022-10-25T10:48:45.770Z,23.50
2022-10-25T10:51:31.630Z,23.30
2022-10-25T10:54:21.506Z,23.60
2022-10-25T10:57:04.923Z,23.60
2022-10-25T10:59:37.221Z,24.60
2022-10-25T11:02:21.010Z,25.80
2022-10-25T11:04:49.128Z,24.80
2022-10-25T11:07:35.163Z,26.40
2022-10-25T11:10:15.339Z,26.30
2022-10-25T11:12:42.643Z,25.30
2022-10-25T11:15:16.237Z,25.80
2022-10-25T11:17:49.988Z,25.70
2022-10-25T11:20:17.198Z,26.30
2022-10-25T11:25:42.129Z,25.60
2022-10-25T11:28:09.032Z,25.80
2022-10-25T11:30:59.072Z,27.30
2022-10-25T11:33:34.242Z,27.90
2022-10-25T11:36:06.058Z,27.80
2022-10-25T11:38:32.949Z,26.80
2022-10-25T11:41:06.679Z,28.10
2022-10-25T11:43:33.514Z,28.10
2022-10-25T11:46:07.189Z,28.30
2022-10-25T11:48:38.115Z,28.00
2022-10-25T11:51:14.088Z,26.80
2022-10-25T11:53:43.835Z,28.60
2022-10-25T11:56:13.365Z,28.20
2022-10-25T11:58:52.229Z,26.30
2022-10-25T12:01:28.355Z,25.00
2022-10-25T12:04:02.065Z,24.20
2022-10-25T12:06:49.228Z,23.80
2022-10-25T12:09:18.858Z,23.90
2022-10-25T12:11:49.411Z,24.40
2022-10-25T12:14:20.168Z,24.30
2022-10-25T12:16:47.299Z,24.20
2022-10-25T12:19:24.667Z,24.00
2022-10-25T12:21:59.234Z,23.30
2022-10-25T12:24:35.727Z,22.90
2022-10-25T12:27:02.990Z,21.80
2022-10-25T12:29:33.682Z,21.10
2022-10-25T12:32:01.525Z,20.20
2022-10-25T12:35:03.877Z,19.40
2022-10-25T12:37:33.650Z,19.20
2022-10-25T12:40:00.651Z,19.10
2022-10-25T12:42:27.468Z,18.80
2022-10-25T12:45:00.269Z,18.60
2022-10-25T12:47:45.638Z,18.50
2022-10-25T12:50:31.162Z,18.80
2022-10-25T12:53:07.098Z,19.00
2022-10-25T12:55:53.174Z,19.70
2022-10-25T12:58:24.392Z,19.90
2022-10-25T13:01:04.395Z,19.60
2022-10-25T13:03:50.049Z,19.10
2022-10-25T13:06:19.779Z,18.70
2022-10-25T13:08:46.724Z,18.30
2022-10-25T13:11:13.623Z,18.30
2022-10-25T13:13:47.707Z,18.30
2022-10-25T13:16:23.679Z,19.10
2022-10-25T13:19:10.434Z,19.60
2022-10-25T13:21:53.415Z,19.20
2022-10-25T13:24:40.440Z,21.10
2022-10-25T13:27:13.611Z,21.90
2022-10-25T13:29:43.725Z,20.70
2022-10-25T13:32:15.907Z,20.50
2022-10-25T13:34:42.751Z,20.70
2022-10-25T13:37:30.849Z,23.60
2022-10-25T13:40:07.164Z,26.50
2022-10-25T13:42:35.224Z,27.60
2022-10-25T13:45:01.994Z,27.50
2022-10-25T13:47:31.952Z,26.90
2022-10-25T13:49:59.009Z,26.50
2022-10-25T13:52:25.771Z,25.00
2022-10-25T13:54:56.524Z,24.70
2022-10-25T13:57:41.819Z,24.10
2022-10-25T14:00:12.912Z,23.10
2022-10-25T14:02:58.166Z,23.10
2022-10-25T14:05:43.630Z,23.10
2022-10-25T14:08:15.027Z,22.60
2022-10-25T14:10:42.965Z,22.10
2022-10-25T14:13:16.269Z,21.70
2022-10-25T14:15:45.606Z,21.40
2022-10-25T14:18:15.954Z,21.20
2022-10-25T14:20:45.374Z,20.90
2022-10-25T14:23:17.198Z,20.80
2022-10-25T14:25:51.085Z,20.70
2022-10-25T14:28:31.057Z,20.70
2022-10-25T14:30:58.077Z,20.40
2022-10-25T14:33:30.705Z,20.20
2022-10-25T14:35:57.643Z,20.10
2022-10-25T14:38:26.414Z,20.10
2022-10-25T14:40:57.779Z,20.00
2022-10-25T14:43:24.614Z,20.00
2022-10-25T14:45:55.134Z,19.70
2022-10-25T14:48:22.086Z,19.70
2022-10-25T14:50:49.222Z,19.70
2022-10-25T14:53:16.954Z,19.70
2022-10-25T14:56:10.066Z,19.60
2022-10-25T14:58:41.337Z,19.90
2022-10-25T15:01:10.419Z,20.00
2022-10-25T15:03:41.068Z,19.90
2022-10-25T15:06:07.976Z,19.70
2022-10-25T15:08:37.081Z,19.70
2022-10-25T15:11:08.049Z,19.80
2022-10-25T15:13:41.950Z,19.60
2022-10-25T15:16:27.487Z,19.50
2022-10-25T15:19:06.348Z,19.30
2022-10-25T15:21:41.246Z,19.10
2022-10-25T15:24:28.720Z,18.90
2022-10-25T15:27:03.311Z,18.80
2022-10-25T15:29:42.632Z,18.60
2022-10-25T15:32:13.738Z,18.30
2022-10-25T15:34:41.833Z,18.20
2022-10-25T15:37:12.383Z,17.90
2022-10-25T15:39:39.528Z,17.70
2022-10-25T15:42:07.120Z,17.30
2022-10-25T15:44:35.507Z,17.00
2022-10-25T15:47:02.504Z,16.90
2022-10-25T15:52:01.407Z,16.40
2022-10-25T15:54:28.624Z,16.10
2022-10-25T15:56:55.639Z,15.80
2022-10-25T15:59:22.550Z,15.70
2022-10-25T16:01:51.886Z,15.50
2022-10-25T16:04:19.142Z,15.30
2022-10-25T16:06:46.529Z,15.20
2022-10-25T16:09:13.421Z,15.00
2022-10-25T16:11:43.705Z,14.80
2022-10-25T16:14:19.695Z,14.80
2022-10-25T16:16:46.810Z,14.70
2022-10-25T16:19:14.923Z,14.50
2022-10-25T16:21:42.403Z,14.30
2022-10-25T16:24:09.503Z,14.00
2022-10-25T16:26:36.347Z,13.90
2022-10-25T16:29:03.587Z,13.80
2022-10-25T16:31:30.452Z,13.70
2022-10-25T16:33:57.332Z,13.60
2022-10-25T16:36:24.157Z,13.50
2022-10-25T16:38:50.967Z,13.40
2022-10-25T16:41:24.690Z,13.30
2022-10-25T16:43:51.845Z,13.20
2022-10-25T16:46:18.781Z,13.10
2022-10-25T16:48:45.825Z,13.00
2022-10-25T16:51:13.705Z,13.20
2022-10-25T16:53:40.773Z,13.10
2022-10-25T16:56:09.144Z,13.20
2022-10-25T16:58:36.011Z,12.90
2022-10-25T17:01:02.962Z,12.80
2022-10-25T17:03:29.942Z,12.70
2022-10-25T17:05:56.766Z,12.70
2022-10-25T17:08:24.043Z,13.00
2022-10-25T17:10:51.028Z,12.90
2022-10-25T17:13:17.859Z,12.60
2022-10-25T17:15:44.654Z,12.50
2022-10-25T17:18:56.533Z,12.40
2022-10-25T17:21:23.692Z,12.50
2022-10-25T17:23:50.479Z,12.70
2022-10-25T17:26:17.759Z,12.40
2022-10-25T17:28:44.860Z,12.30
2022-10-25T17:31:13.681Z,12.20
2022-10-25T17:33:41.714Z,12.10
2022-10-25T17:36:13.063Z,12.10
2022-10-25T17:38:40.006Z,12.00
2022-10-25T17:41:07.139Z,12.00
2022-10-25T17:43:35.104Z,11.90
2022-10-25T17:46:06.332Z,12.10
2022-10-25T17:48:33.504Z,11.90
2022-10-25T17:51:01.073Z,11.90
2022-10-25T17:53:28.009Z,11.80
2022-10-25T17:55:54.812Z,11.80
2022-10-25T17:58:21.657Z,11.70
2022-10-25T18:00:48.803Z,11.70
2022-10-25T18:03:15.700Z,11.70
2022-10-25T18:05:42.542Z,11.60
2022-10-25T18:08:09.366Z,11.60
2022-10-25T18:10:36.130Z,11.50
2022-10-25T18:13:03.363Z,11.50
2022-10-25T18:15:30.171Z,11.40
2022-10-25T18:17:57.000Z,11.30
2022-10-25T18:20:25.379Z,11.30
2022-10-25T18:22:53.083Z,11.30
2022-10-25T18:25:20.195Z,11.40
2022-10-25T18:27:47.418Z,11.60
2022-10-25T18:30:14.615Z,11.70
2022-10-25T18:32:41.430Z,11.50
2022-10-25T18:35:08.966Z,11.40
2022-10-25T18:37:35.811Z,11.30
2022-10-25T18:40:02.703Z,11.20
2022-10-25T18:42:29.587Z,11.30
2022-10-25T18:44:56.789Z,11.20
2022-10-25T18:47:23.737Z,11.10
2022-10-25T18:49:50.611Z,11.10
2022-10-25T18:52:17.425Z,11.10
2022-10-25T18:54:44.565Z,11.10
2022-10-25T18:57:11.651Z,11.10
2022-10-25T18:59:38.527Z,11.10
2022-10-25T19:02:05.497Z,11.10
2022-10-25T19:04:32.416Z,11.20
2022-10-25T19:06:59.183Z,11.20
2022-10-25T19:09:26.208Z,11.10
2022-10-25T19:11:53.164Z,11.20
2022-10-25T19:14:20.008Z,11.10
2022-10-25T19:16:46.830Z,11.10
2022-10-25T19:19:14.725Z,11.00
2022-10-25T19:21:42.946Z,11.00
2022-10-25T19:24:13.959Z,10.90
2022-10-25T19:26:42.123Z,10.90
2022-10-25T19:29:09.111Z,10.90
2022-10-25T19:31:36.031Z,10.90
2022-10-25T19:34:03.311Z,10.90
2022-10-25T19:36:30.590Z,11.00
2022-10-25T19:38:57.715Z,10.90
2022-10-25T19:41:25.823Z,11.10
2022-10-25T19:43:53.475Z,11.10
2022-10-25T19:46:21.168Z,10.90
2022-10-25T19:48:48.332Z,10.90
2022-10-25T19:51:16.606Z,11.20
2022-10-25T19:53:43.558Z,11.00
2022-10-25T19:56:14.711Z,10.90
2022-10-25T19:58:41.835Z,10.80
2022-10-25T20:01:10.782Z,10.90
2022-10-25T20:03:38.471Z,11.10
2022-10-25T20:06:06.904Z,11.00
2022-10-25T20:08:34.940Z,11.00
2022-10-25T20:11:01.918Z,10.90
2022-10-25T20:13:28.956Z,11.00
2022-10-25T20:15:56.019Z,11.00
2022-10-25T20:18:24.228Z,11.10
2022-10-25T20:20:53.161Z,11.10
2022-10-25T20:23:20.808Z,11.00
2022-10-25T20:25:47.604Z,11.00
2022-10-25T20:28:14.520Z,11.10
2022-10-25T20:30:41.480Z,11.10
2022-10-25T20:33:08.828Z,11.10
2022-10-25T20:35:39.788Z,11.10
2022-10-25T20:38:07.004Z,11.20
2022-10-25T20:40:34.366Z,11.10
2022-10-25T20:43:01.512Z,11.10
2022-10-25T20:45:29.158Z,11.20
2022-10-25T20:47:59.585Z,11.30
2022-10-25T20:50:27.268Z,11.30
2022-10-25T20:53:10.525Z,11.40
2022-10-25T20:55:38.067Z,11.30
2022-10-25T20:58:05.228Z,11.30
2022-10-25T21:00:32.890Z,11.30
2022-10-25T21:02:59.952Z,11.40
2022-10-25T21:05:26.943Z,11.30
2022-10-25T21:07:53.773Z,11.30
2022-10-25T21:10:20.614Z,11.20
2022-10-25T21:12:47.480Z,11.20
2022-10-25T21:15:14.378Z,11.20
2022-10-25T21:17:41.247Z,11.20
2022-10-25T21:20:09.061Z,11.20
2022-10-25T21:22:35.904Z,11.20
2022-10-25T21:25:02.765Z,11.10
2022-10-25T21:27:29.715Z,11.10
2022-10-25T21:29:56.515Z,11.20
2022-10-25T21:32:23.460Z,11.20
2022-10-25T21:34:50.479Z,11.30
2022-10-25T21:37:17.351Z,11.30
2022-10-25T21:39:45.857Z,11.30
2022-10-25T21:42:12.684Z,11.30
2022-10-25T21:44:39.526Z,11.30
2022-10-25T21:47:06.404Z,11.30
2022-10-25T21:49:33.428Z,11.20
2022-10-25T21:52:00.313Z,11.20
2022-10-25T21:54:27.545Z,11.20
2022-10-25T21:56:54.647Z,11.10
2022-10-25T21:59:22.147Z,11.20
2022-10-25T22:01:49.217Z,11.20
2022-10-25T22:04:16.266Z,11.20
2022-10-25T22:06:43.123Z,11.20
2022-10-25T22:09:10.019Z,11.10
2022-10-25T22:11:37.995Z,11.20
2022-10-25T22:14:05.932Z,11.30
2022-10-25T22:16:33.346Z,11.20
2022-10-25T22:19:03.087Z,11.30
2022-10-25T22:21:31.735Z,11.30
2022-10-25T22:23:58.767Z,11.50
2022-10-25T22:26:26.011Z,11.40
2022-10-25T22:28:53.744Z,11.50
2022-10-25T22:31:21.565Z,11.50
2022-10-25T22:33:52.835Z,11.40
2022-10-25T22:36:20.379Z,11.40
2022-10-25T22:38:47.511Z,11.50
2022-10-25T22:41:15.832Z,11.60
2022-10-25T22:43:43.214Z,11.50
2022-10-25T22:46:14.579Z,11.40
2022-10-25T22:48:42.347Z,11.40
2022-10-25T22:51:09.397Z,11.40
2022-10-25T22:53:36.689Z,11.40
2022-10-25T22:56:03.508Z,11.40
2022-10-25T22:58:33.837Z,11.40
2022-10-25T23:03:54.614Z,11.50
2022-10-25T23:06:32.124Z,11.50
2022-10-25T23:09:00.320Z,11.50
2022-10-25T23:11:34.645Z,11.50
2022-10-25T23:14:01.977Z,11.40
2022-10-25T23:16:29.114Z,11.40
2022-10-25T23:18:56.178Z,11.40
2022-10-25T23:21:24.355Z,11.40
2022-10-25T23:23:52.000Z,11.40
2022-10-25T23:26:19.768Z,11.40
2022-10-25T23:28:46.585Z,11.30
2022-10-25T23:31:14.041Z,11.20
2022-10-25T23:33:44.182Z,11.30
2022-10-25T23:36:12.397Z,11.50
2022-10-25T23:38:39.772Z,11.50
2022-10-25T23:41:06.895Z,11.40
2022-10-25T23:43:34.408Z,11.40
2022-10-25T23:46:01.491Z,11.50
2022-10-25T23:48:28.529Z,11.90
2022-10-25T23:50:56.369Z,11.70
2022-10-25T23:53:23.590Z,11.70
2022-10-25T23:55:50.448Z,11.70
2022-10-25T23:58:17.383Z,11.60
